createdAt,value
2023-07-24T00:00:42.164Z,17.98
2023-07-24T00:03:10.180Z,17.95
2023-07-24T00:05:38.093Z,17.96
2023-07-24T00:08:06.736Z,17.92
2023-07-24T00:10:34.666Z,17.89
2023-07-24T00:13:04.406Z,17.89
2023-07-24T00:15:32.296Z,17.89
2023-07-24T00:18:00.275Z,17.86
2023-07-24T00:20:28.475Z,17.86
2023-07-24T00:22:56.285Z,17.83
2023-07-24T00:25:24.128Z,17.79
2023-07-24T00:27:51.942Z,17.78
2023-07-24T00:30:21.240Z,17.76
2023-07-24T00:32:49.147Z,17.75
2023-07-24T00:35:17.895Z,17.71
2023-07-24T00:37:45.711Z,17.68
2023-07-24T00:40:14.251Z,17.65
2023-07-24T00:42:42.109Z,17.63
2023-07-24T00:45:10.794Z,17.63
2023-07-24T00:47:40.528Z,17.62
2023-07-24T00:50:09.847Z,17.61
2023-07-24T00:52:37.840Z,17.60
2023-07-24T00:55:06.196Z,17.59
2023-07-24T00:57:34.784Z,17.61
2023-07-24T01:00:02.890Z,17.60
2023-07-24T01:02:32.230Z,17.59
2023-07-24T01:05:01.598Z,17.59
2023-07-24T01:07:29.497Z,17.59
2023-07-24T01:09:57.314Z,17.57
2023-07-24T01:12:33.602Z,17.58
2023-07-24T01:15:08.453Z,17.57
2023-07-24T01:17:41.242Z,17.57
2023-07-24T01:20:15.617Z,17.58
2023-07-24T01:22:59.674Z,17.55
2023-07-24T01:25:33.459Z,17.55
2023-07-24T01:28:02.686Z,17.56
2023-07-24T01:30:30.504Z,17.56
2023-07-24T01:32:58.571Z,17.55
2023-07-24T01:35:28.640Z,17.55
2023-07-24T01:37:58.314Z,17.55
2023-07-24T01:40:26.306Z,17.54
2023-07-24T01:42:54.287Z,17.53
2023-07-24T01:45:23.642Z,17.53
2023-07-24T01:47:51.496Z,17.52
2023-07-24T01:50:19.653Z,17.52
2023-07-24T01:52:47.429Z,17.51
2023-07-24T01:55:15.318Z,17.51
2023-07-24T01:57:43.116Z,17.54
2023-07-24T02:00:12.205Z,17.50
2023-07-24T02:02:41.457Z,17.53
2023-07-24T02:05:10.263Z,17.54
2023-07-24T02:07:38.091Z,17.52
2023-07-24T02:10:06.528Z,17.51
2023-07-24T02:12:34.340Z,17.50
2023-07-24T02:15:02.265Z,17.48
2023-07-24T02:17:30.114Z,17.46
2023-07-24T02:19:59.297Z,17.45
2023-07-24T02:22:27.203Z,17.43
2023-07-24T02:24:55.021Z,17.43
2023-07-24T02:27:32.185Z,17.42
2023-07-24T02:30:00.343Z,17.40
2023-07-24T02:32:28.220Z,17.36
2023-07-24T02:34:56.140Z,17.33
2023-07-24T02:37:25.526Z,17.33
2023-07-24T02:39:54.091Z,17.32
2023-07-24T02:42:20.966Z,17.32
2023-07-24T02:44:48.775Z,17.34
2023-07-24T02:47:16.621Z,17.32
2023-07-24T02:49:45.927Z,17.34
2023-07-24T02:52:13.780Z,17.33
2023-07-24T02:54:43.284Z,17.32
2023-07-24T02:57:11.072Z,17.30
2023-07-24T02:59:38.934Z,17.29
2023-07-24T03:02:06.917Z,17.28
2023-07-24T03:04:34.871Z,17.27
2023-07-24T03:07:02.640Z,17.27
2023-07-24T03:09:30.508Z,17.27
2023-07-24T03:11:59.682Z,17.27
2023-07-24T03:14:27.521Z,17.26
2023-07-24T03:16:55.340Z,17.28
2023-07-24T03:19:23.258Z,17.28
2023-07-24T03:21:51.076Z,17.25
2023-07-24T03:24:19.052Z,17.26
2023-07-24T03:26:46.923Z,17.26
2023-07-24T03:29:16.178Z,17.26
2023-07-24T03:31:43.980Z,17.24
2023-07-24T03:34:11.833Z,17.24
2023-07-24T03:36:42.441Z,17.23
2023-07-24T03:39:12.051Z,17.22
2023-07-24T03:41:40.330Z,17.22
2023-07-24T03:44:08.124Z,17.19
2023-07-24T03:46:37.532Z,17.16
2023-07-24T03:49:05.376Z,17.15
2023-07-24T03:51:34.373Z,17.14
2023-07-24T03:54:02.183Z,17.10
2023-07-24T03:56:30.198Z,17.09
2023-07-24T03:58:58.171Z,17.08
2023-07-24T04:01:26.103Z,17.06
2023-07-24T04:03:55.318Z,17.05
2023-07-24T04:06:23.223Z,17.05
2023-07-24T04:08:51.027Z,17.07
2023-07-24T04:11:18.832Z,17.03
2023-07-24T04:13:46.690Z,17.06
2023-07-24T04:16:14.469Z,17.01
2023-07-24T04:18:42.285Z,17.05
2023-07-24T04:21:11.422Z,17.03
2023-07-24T04:23:39.253Z,17.02
2023-07-24T04:26:07.058Z,17.01
2023-07-24T04:28:34.897Z,16.97
2023-07-24T04:31:03.428Z,16.95
2023-07-24T04:33:31.340Z,16.92
2023-07-24T04:36:00.983Z,16.90
2023-07-24T04:38:30.202Z,16.92
2023-07-24T04:40:58.008Z,16.94
2023-07-24T04:43:25.908Z,16.91
2023-07-24T04:45:53.715Z,16.90
2023-07-24T04:48:22.080Z,16.89
2023-07-24T04:50:55.484Z,16.87
2023-07-24T04:53:23.286Z,16.85
2023-07-24T04:55:52.495Z,16.86
2023-07-24T04:58:20.374Z,16.83
2023-07-24T05:00:48.184Z,16.81
2023-07-24T05:03:18.221Z,16.81
2023-07-24T05:05:49.781Z,16.77
2023-07-24T05:08:17.772Z,16.76
2023-07-24T05:10:45.645Z,16.72
2023-07-24T05:13:14.833Z,16.73
2023-07-24T05:15:42.712Z,16.74
2023-07-24T05:18:10.509Z,16.70
2023-07-24T05:20:38.277Z,16.71
2023-07-24T05:23:06.071Z,16.72
2023-07-24T05:25:33.955Z,16.71
2023-07-24T05:28:01.807Z,16.71
2023-07-24T05:30:30.990Z,16.71
2023-07-24T05:32:58.903Z,16.73
2023-07-24T05:35:26.710Z,16.74
2023-07-24T05:37:54.536Z,16.75
2023-07-24T05:40:22.337Z,16.76
2023-07-24T05:42:50.170Z,16.74
2023-07-24T05:45:18.077Z,16.75
2023-07-24T05:47:47.349Z,16.77
2023-07-24T05:50:15.501Z,16.78
2023-07-24T05:52:43.380Z,16.80
2023-07-24T05:55:11.509Z,16.83
2023-07-24T05:57:39.396Z,16.85
2023-07-24T06:00:08.396Z,16.88
2023-07-24T06:02:43.924Z,16.92
2023-07-24T06:05:13.118Z,16.96
2023-07-24T06:07:40.957Z,16.99
2023-07-24T06:10:09.720Z,17.01
2023-07-24T06:12:37.521Z,17.04
2023-07-24T06:15:06.103Z,17.11
2023-07-24T06:17:34.007Z,17.16
2023-07-24T06:20:01.915Z,17.23
2023-07-24T06:22:31.063Z,17.30
2023-07-24T06:24:58.925Z,17.36
2023-07-24T06:27:26.744Z,17.43
2023-07-24T06:29:58.720Z,17.47
2023-07-24T06:32:33.104Z,17.51
2023-07-24T06:35:00.910Z,17.52
2023-07-24T06:37:28.715Z,17.54
2023-07-24T06:39:58.401Z,17.57
2023-07-24T06:42:26.282Z,17.60
2023-07-24T06:44:54.145Z,17.67
2023-07-24T06:47:22.091Z,17.77
2023-07-24T06:49:49.925Z,17.83
2023-07-24T06:52:17.816Z,17.89
2023-07-24T06:54:45.701Z,17.92
2023-07-24T06:57:14.972Z,17.93
2023-07-24T06:59:42.812Z,18.01
2023-07-24T07:02:10.619Z,18.08
2023-07-24T07:04:38.449Z,18.17
2023-07-24T07:07:06.527Z,18.22
2023-07-24T07:09:34.467Z,18.25
2023-07-24T07:12:02.272Z,18.31
2023-07-24T07:14:31.464Z,18.29
2023-07-24T07:16:59.282Z,18.28
2023-07-24T07:19:27.066Z,18.26
2023-07-24T07:21:54.859Z,18.27
2023-07-24T07:24:22.720Z,18.31
2023-07-24T07:26:50.515Z,18.33
2023-07-24T07:29:18.337Z,18.40
2023-07-24T07:31:47.507Z,18.54
2023-07-24T07:34:15.327Z,18.69
2023-07-24T07:36:43.134Z,18.80
2023-07-24T07:39:11.402Z,18.80
2023-07-24T07:41:39.194Z,18.80
2023-07-24T07:44:07.103Z,18.76
2023-07-24T07:46:35.049Z,18.87
2023-07-24T07:49:04.302Z,18.94
2023-07-24T07:51:32.142Z,18.97
2023-07-24T07:53:59.923Z,18.97
2023-07-24T07:56:28.016Z,19.00
2023-07-24T07:58:56.171Z,19.01
2023-07-24T08:01:24.008Z,19.05
2023-07-24T08:03:51.902Z,19.05
2023-07-24T08:06:22.357Z,18.98
2023-07-24T08:08:50.185Z,18.89
2023-07-24T08:11:18.108Z,18.82
2023-07-24T08:13:45.950Z,18.79
2023-07-24T08:16:19.747Z,18.81
2023-07-24T08:18:48.768Z,18.94
2023-07-24T08:21:17.234Z,19.07
2023-07-24T08:23:46.411Z,19.10
2023-07-24T08:26:14.246Z,19.20
2023-07-24T08:28:43.303Z,19.29
2023-07-24T08:31:11.658Z,19.32
2023-07-24T08:33:39.690Z,19.37
2023-07-24T08:36:09.441Z,19.49
2023-07-24T08:38:37.802Z,19.53
2023-07-24T08:41:08.263Z,19.49
2023-07-24T08:43:37.645Z,19.38
2023-07-24T08:46:06.706Z,19.42
2023-07-24T08:48:37.123Z,19.51
2023-07-24T08:51:05.833Z,19.46
2023-07-24T08:53:35.123Z,19.39
2023-07-24T08:56:04.185Z,19.46
2023-07-24T08:58:33.909Z,19.55
2023-07-24T09:01:03.935Z,19.64
2023-07-24T09:03:33.029Z,19.80
2023-07-24T09:06:02.513Z,19.92
2023-07-24T09:08:31.467Z,20.19
2023-07-24T09:10:59.390Z,20.10
2023-07-24T09:13:27.557Z,20.23
2023-07-24T09:15:57.108Z,20.32
2023-07-24T09:18:25.144Z,20.44
2023-07-24T09:20:53.270Z,20.39
2023-07-24T09:23:28.501Z,20.34
2023-07-24T09:25:56.618Z,20.45
2023-07-24T09:28:24.502Z,20.38
2023-07-24T09:30:57.870Z,20.39
2023-07-24T09:33:35.663Z,20.45
2023-07-24T09:36:04.417Z,20.26
2023-07-24T09:38:32.548Z,20.10
2023-07-24T09:41:00.384Z,20.04
2023-07-24T09:43:40.010Z,20.05
2023-07-24T09:46:11.532Z,20.01
2023-07-24T09:48:43.262Z,19.96
2023-07-24T09:51:14.328Z,19.94
2023-07-24T09:53:49.383Z,19.84
2023-07-24T09:56:20.318Z,19.84
2023-07-24T09:58:55.438Z,19.81
2023-07-24T10:01:25.930Z,19.82
2023-07-24T10:03:54.231Z,19.92
2023-07-24T10:06:22.765Z,20.04
2023-07-24T10:08:51.448Z,20.28
2023-07-24T10:11:19.557Z,20.39
2023-07-24T10:13:48.200Z,20.42
2023-07-24T10:16:16.325Z,20.40
2023-07-24T10:18:47.262Z,20.47
2023-07-24T10:21:15.578Z,20.56
2023-07-24T10:23:44.693Z,20.83
2023-07-24T10:26:12.982Z,21.01
2023-07-24T10:28:43.057Z,21.12
2023-07-24T10:31:21.994Z,21.10
2023-07-24T10:33:52.246Z,21.09
2023-07-24T10:36:23.331Z,21.12
2023-07-24T10:38:56.023Z,21.07
2023-07-24T10:41:24.098Z,21.09
2023-07-24T10:43:52.939Z,21.25
2023-07-24T10:46:22.133Z,21.38
2023-07-24T10:48:53.370Z,21.69
2023-07-24T10:51:23.288Z,21.85
2023-07-24T10:53:51.619Z,21.94
2023-07-24T10:56:19.478Z,22.20
2023-07-24T10:58:47.309Z,22.25
2023-07-24T11:01:16.026Z,21.96
2023-07-24T11:03:44.780Z,21.94
2023-07-24T11:06:19.495Z,21.78
2023-07-24T11:08:53.510Z,21.78
2023-07-24T11:11:21.370Z,21.94
2023-07-24T11:13:49.176Z,21.92
2023-07-24T11:16:17.023Z,22.08
2023-07-24T11:18:54.845Z,22.13
2023-07-24T11:21:25.169Z,22.07
2023-07-24T11:23:54.508Z,22.13
2023-07-24T11:26:23.244Z,22.18
2023-07-24T11:28:51.723Z,22.26
2023-07-24T11:31:21.592Z,22.37
2023-07-24T11:33:51.645Z,22.41
2023-07-24T11:36:20.220Z,22.38
2023-07-24T11:38:50.017Z,22.59
2023-07-24T11:41:19.488Z,22.67
2023-07-24T11:43:49.166Z,22.41
2023-07-24T11:46:25.980Z,21.96
2023-07-24T11:48:54.962Z,21.87
2023-07-24T11:51:22.860Z,21.83
2023-07-24T11:53:52.090Z,21.68
2023-07-24T11:56:23.032Z,21.43
2023-07-24T11:58:50.884Z,21.25
2023-07-24T12:01:18.720Z,21.09
2023-07-24T12:03:46.661Z,21.00
2023-07-24T12:06:17.986Z,20.79
2023-07-24T12:08:46.588Z,20.64
2023-07-24T12:11:21.863Z,20.54
2023-07-24T12:13:51.505Z,20.61
2023-07-24T12:16:19.571Z,20.60
2023-07-24T12:18:47.399Z,20.62
2023-07-24T12:21:15.235Z,20.71
2023-07-24T12:23:43.043Z,20.66
2023-07-24T12:26:10.871Z,20.77
2023-07-24T12:28:40.044Z,20.94
2023-07-24T12:31:07.881Z,20.93
2023-07-24T12:33:35.845Z,20.78
2023-07-24T12:36:03.667Z,20.93
2023-07-24T12:38:31.540Z,21.04
2023-07-24T12:40:59.321Z,21.06
2023-07-24T12:43:27.265Z,21.00
2023-07-24T12:45:56.399Z,20.80
2023-07-24T12:48:24.290Z,20.80
2023-07-24T12:50:53.042Z,20.84
2023-07-24T12:53:31.901Z,20.82
2023-07-24T12:56:02.636Z,20.77
2023-07-24T12:58:30.500Z,20.86
2023-07-24T13:00:59.828Z,20.95
2023-07-24T13:03:27.782Z,21.00
2023-07-24T13:05:55.742Z,21.03
2023-07-24T13:08:24.617Z,21.04
2023-07-24T13:10:52.961Z,21.09
2023-07-24T13:13:20.847Z,21.11
2023-07-24T13:15:48.709Z,21.16
2023-07-24T13:18:28.380Z,21.23
2023-07-24T13:20:57.265Z,21.25
2023-07-24T13:23:25.299Z,21.21
2023-07-24T13:25:54.530Z,20.96
2023-07-24T13:28:22.347Z,20.68
2023-07-24T13:30:50.200Z,20.56
2023-07-24T13:33:20.212Z,20.45
2023-07-24T13:35:48.022Z,20.43
2023-07-24T13:38:15.916Z,20.34
2023-07-24T13:40:43.739Z,20.29
2023-07-24T13:43:11.657Z,20.17
2023-07-24T13:45:39.449Z,20.05
2023-07-24T13:48:07.504Z,19.91
2023-07-24T13:50:36.679Z,19.59
2023-07-24T13:53:04.493Z,19.44
2023-07-24T13:55:32.436Z,19.20
2023-07-24T13:58:00.233Z,19.24
2023-07-24T14:00:28.081Z,19.42
2023-07-24T14:02:56.098Z,19.40
2023-07-24T14:05:23.981Z,19.47
2023-07-24T14:07:53.175Z,19.46
2023-07-24T14:10:21.012Z,19.51
2023-07-24T14:12:48.889Z,19.58
2023-07-24T14:15:16.777Z,19.52
2023-07-24T14:17:44.710Z,19.49
2023-07-24T14:20:13.398Z,19.45
2023-07-24T14:22:41.634Z,19.45
2023-07-24T14:25:11.123Z,19.47
2023-07-24T14:27:39.099Z,19.53
2023-07-24T14:30:08.636Z,19.61
2023-07-24T14:32:36.723Z,19.66
2023-07-24T14:35:05.130Z,19.67
2023-07-24T14:37:33.220Z,19.65
2023-07-24T14:40:03.782Z,19.71
2023-07-24T14:42:33.103Z,19.92
2023-07-24T14:45:03.487Z,20.08
2023-07-24T14:47:31.980Z,20.20
2023-07-24T14:50:00.193Z,20.28
2023-07-24T14:52:28.304Z,20.43
2023-07-24T14:57:48.625Z,20.77
2023-07-24T15:01:04.331Z,20.80
2023-07-24T15:03:49.690Z,20.87
2023-07-24T15:06:17.833Z,20.93
2023-07-24T15:08:47.936Z,20.99
2023-07-24T15:11:15.907Z,21.06
2023-07-24T15:13:45.080Z,21.16
2023-07-24T15:16:13.113Z,21.23
2023-07-24T15:18:41.098Z,21.21
2023-07-24T15:21:18.209Z,21.25
2023-07-24T15:23:48.010Z,21.27
2023-07-24T15:26:16.099Z,21.26
2023-07-24T15:28:48.277Z,21.23
2023-07-24T15:31:18.849Z,21.15
2023-07-24T15:33:46.820Z,21.03
2023-07-24T15:36:14.670Z,20.90
2023-07-24T15:38:42.492Z,20.84
2023-07-24T15:41:10.334Z,20.64
2023-07-24T15:43:38.183Z,20.55
2023-07-24T15:46:07.464Z,20.48
2023-07-24T15:48:35.370Z,20.45
2023-07-24T15:51:03.679Z,20.36
2023-07-24T15:53:32.731Z,20.22
2023-07-24T15:56:00.621Z,20.26
2023-07-24T15:58:28.446Z,20.09
2023-07-24T16:00:56.335Z,19.97
2023-07-24T16:03:25.640Z,19.94
2023-07-24T16:05:53.529Z,19.98
2023-07-24T16:08:21.384Z,19.90
2023-07-24T16:10:49.287Z,19.79
2023-07-24T16:13:17.125Z,19.63
2023-07-24T16:15:46.830Z,19.68
2023-07-24T16:18:14.927Z,19.65
2023-07-24T16:23:15.088Z,19.42
2023-07-24T16:25:42.959Z,19.35
2023-07-24T16:28:10.729Z,19.09
2023-07-24T16:30:38.642Z,18.93
2023-07-24T16:33:06.647Z,18.87
2023-07-24T16:35:34.590Z,18.79
2023-07-24T16:38:06.382Z,18.72
2023-07-24T16:40:36.320Z,18.59
2023-07-24T16:43:04.119Z,18.50
2023-07-24T16:45:36.526Z,18.37
2023-07-24T16:48:05.653Z,18.34
2023-07-24T16:50:36.112Z,18.34
2023-07-24T16:53:05.868Z,18.39
2023-07-24T16:55:33.720Z,18.33
2023-07-24T16:58:01.525Z,18.24
2023-07-24T17:00:29.641Z,18.11
2023-07-24T17:02:57.703Z,18.05
2023-07-24T17:05:25.601Z,18.14
2023-07-24T17:07:53.411Z,18.04
2023-07-24T17:10:22.623Z,18.01
2023-07-24T17:12:50.617Z,18.20
2023-07-24T17:15:18.600Z,18.20
2023-07-24T17:17:47.353Z,18.16
2023-07-24T17:20:15.229Z,18.14
2023-07-24T17:22:43.057Z,18.17
2023-07-24T17:25:11.142Z,18.22
2023-07-24T17:27:41.158Z,18.28
2023-07-24T17:30:09.799Z,18.23
2023-07-24T17:32:37.690Z,18.25
2023-07-24T17:35:06.463Z,18.19
2023-07-24T17:37:38.543Z,18.13
2023-07-24T17:40:08.515Z,18.12
2023-07-24T17:42:37.517Z,18.20
2023-07-24T17:45:07.728Z,18.15
2023-07-24T17:47:35.951Z,18.12
2023-07-24T17:50:07.734Z,17.97
2023-07-24T17:52:36.103Z,17.97
2023-07-24T17:55:04.545Z,18.04
2023-07-24T17:57:33.554Z,18.05
2023-07-24T18:00:01.462Z,18.13
2023-07-24T18:02:30.691Z,18.21
2023-07-24T18:04:58.507Z,18.24
2023-07-24T18:07:26.370Z,18.25
2023-07-24T18:09:54.171Z,18.20
2023-07-24T18:12:22.442Z,18.29
2023-07-24T18:14:50.280Z,18.28
2023-07-24T18:17:18.124Z,18.37
2023-07-24T18:19:48.231Z,18.36
2023-07-24T18:22:18.686Z,18.34
2023-07-24T18:24:46.712Z,18.26
2023-07-24T18:27:14.573Z,18.20
2023-07-24T18:29:42.361Z,18.25
2023-07-24T18:32:10.571Z,18.29
2023-07-24T18:34:38.462Z,18.31
2023-07-24T18:37:07.944Z,18.28
2023-07-24T18:39:35.934Z,18.28
2023-07-24T18:42:04.030Z,18.27
2023-07-24T18:44:32.537Z,18.11
2023-07-24T18:47:00.375Z,18.01
2023-07-24T18:49:28.224Z,17.92
2023-07-24T18:51:56.054Z,17.67
2023-07-24T18:54:25.197Z,17.58
2023-07-24T18:56:53.098Z,17.49
2023-07-24T18:59:20.925Z,17.48
2023-07-24T19:01:49.152Z,17.47
2023-07-24T19:04:16.974Z,17.35
2023-07-24T19:06:44.945Z,17.24
2023-07-24T19:09:12.797Z,17.16
2023-07-24T19:11:42.104Z,17.08
2023-07-24T19:14:09.920Z,17.01
2023-07-24T19:16:37.836Z,17.07
2023-07-24T19:19:08.805Z,17.11
2023-07-24T19:21:36.529Z,17.08
2023-07-24T19:24:04.853Z,17.16
2023-07-24T19:26:33.236Z,17.17
2023-07-24T19:29:02.582Z,17.22
2023-07-24T19:31:30.740Z,17.27
2023-07-24T19:33:58.961Z,17.20
2023-07-24T19:36:26.978Z,17.23
2023-07-24T19:38:54.847Z,17.07
2023-07-24T19:41:22.686Z,17.15
2023-07-24T19:43:50.529Z,17.13
2023-07-24T19:46:19.794Z,17.08
2023-07-24T19:48:47.651Z,17.15
2023-07-24T19:51:15.569Z,17.15
2023-07-24T19:53:43.391Z,17.16
2023-07-24T19:56:11.272Z,17.15
2023-07-24T19:58:39.137Z,17.09
2023-07-24T20:01:07.039Z,17.07
2023-07-24T20:03:36.366Z,17.08
2023-07-24T20:06:08.242Z,17.11
2023-07-24T20:08:37.185Z,17.16
2023-07-24T20:11:07.320Z,17.20
2023-07-24T20:13:35.985Z,17.19
2023-07-24T20:16:03.947Z,17.17
2023-07-24T20:18:31.824Z,17.16
2023-07-24T20:21:01.304Z,17.12
2023-07-24T20:23:29.222Z,17.08
2023-07-24T20:25:57.069Z,17.05
2023-07-24T20:28:27.024Z,17.02
2023-07-24T20:30:54.844Z,16.95
2023-07-24T20:33:22.635Z,16.91
2023-07-24T20:35:50.546Z,16.87
2023-07-24T20:38:27.985Z,16.84
2023-07-24T20:40:56.191Z,16.80
2023-07-24T20:43:24.101Z,16.76
2023-07-24T20:45:52.810Z,16.70
2023-07-24T20:48:21.461Z,16.66
2023-07-24T20:50:49.628Z,16.60
2023-07-24T20:53:17.490Z,16.56
2023-07-24T20:55:46.627Z,16.49
2023-07-24T20:58:14.466Z,16.42
2023-07-24T21:00:42.288Z,16.38
2023-07-24T21:03:10.193Z,16.33
2023-07-24T21:05:38.402Z,16.27
2023-07-24T21:08:06.512Z,16.24
2023-07-24T21:10:34.325Z,16.22
2023-07-24T21:13:03.529Z,16.17
2023-07-24T21:15:31.375Z,16.10
2023-07-24T21:17:59.177Z,16.03
2023-07-24T21:20:26.987Z,15.98
2023-07-24T21:22:54.919Z,15.92
2023-07-24T21:25:22.733Z,15.89
2023-07-24T21:27:50.504Z,15.83
2023-07-24T21:30:21.640Z,15.77
2023-07-24T21:32:49.595Z,15.73
2023-07-24T21:35:20.547Z,15.65
2023-07-24T21:37:48.366Z,15.59
2023-07-24T21:40:16.191Z,15.54
2023-07-24T21:42:44.003Z,15.53
2023-07-24T21:45:11.956Z,15.47
2023-07-24T21:47:41.161Z,15.39
2023-07-24T21:50:09.864Z,15.36
2023-07-24T21:52:37.786Z,15.31
2023-07-24T21:55:06.308Z,15.29
2023-07-24T21:57:34.118Z,15.26
2023-07-24T22:00:01.965Z,15.20
2023-07-24T22:02:41.440Z,15.15
2023-07-24T22:05:09.434Z,15.11
2023-07-24T22:07:37.247Z,15.05
2023-07-24T22:10:05.485Z,15.01
2023-07-24T22:12:33.948Z,14.96
2023-07-24T22:15:01.953Z,14.92
2023-07-24T22:17:30.462Z,14.91
2023-07-24T22:19:59.755Z,14.88
2023-07-24T22:22:27.596Z,14.83
2023-07-24T22:24:55.569Z,14.78
2023-07-24T22:27:23.398Z,14.71
2023-07-24T22:29:51.234Z,14.70
2023-07-24T22:32:19.070Z,14.67
2023-07-24T22:34:48.417Z,14.68
2023-07-24T22:37:17.777Z,14.68
2023-07-24T22:39:45.947Z,14.68
2023-07-24T22:42:13.974Z,14.65
2023-07-24T22:44:41.784Z,14.63
2023-07-24T22:47:09.665Z,14.62
2023-07-24T22:49:37.940Z,14.58
2023-07-24T22:52:07.354Z,14.56
2023-07-24T22:54:36.581Z,14.54
2023-07-24T22:57:04.813Z,14.53
2023-07-24T22:59:32.636Z,14.49
2023-07-24T23:02:00.482Z,14.41
2023-07-24T23:04:28.298Z,14.34
2023-07-24T23:06:56.801Z,14.27
2023-07-24T23:09:24.759Z,14.22
2023-07-24T23:11:53.917Z,14.14
2023-07-24T23:14:21.717Z,14.11
2023-07-24T23:16:49.539Z,14.06
2023-07-24T23:19:17.398Z,14.04
2023-07-24T23:21:45.235Z,14.02
2023-07-24T23:24:13.274Z,13.98
2023-07-24T23:26:41.162Z,14.00
2023-07-24T23:29:10.366Z,13.95
2023-07-24T23:31:38.205Z,13.90
2023-07-24T23:34:06.029Z,13.88
2023-07-24T23:36:33.863Z,13.85
2023-07-24T23:39:01.724Z,13.82
2023-07-24T23:41:29.768Z,13.81
2023-07-24T23:43:57.778Z,13.77
2023-07-24T23:46:27.014Z,13.75
2023-07-24T23:48:54.803Z,13.71
2023-07-24T23:51:24.524Z,13.69
2023-07-24T23:53:52.559Z,13.67
2023-07-24T23:56:20.415Z,13.62
2023-07-24T23:58:48.435Z,13.60
